KLRU/LRU METAR and TAF weather

Enter ICAO airport designator
Station Type Date Time Source
KLRU METAR 2021/04/13 08:35 UTC NOAA

KLRU 130835Z AUTO 13011KT 10SM CLR 19/M02 A2995 RMK AO2 T01871025


Station Type Date Time Source
KLRU Decoded METAR 2021/04/13 08:35 UTC NOAA

Las Cruces, Las Cruces International Airport, NM, United States (KLRU) 32-17-22N 106-55-19W
Apr 13, 2021 - 04:35 AM EDT / 2021.04.13 0835 UTC
Wind: from the SE (130 degrees) at 13 MPH (11 KT):0
Visibility: 10 mile(s):0
Sky conditions: clear
Temperature: 65.7 F (18.7 C)
Dew Point: 27.5 F (-2.5 C)
Relative Humidity: 23%
Pressure (altimeter): 29.95 in. Hg (1014 hPa)
ob: KLRU 130835Z AUTO 13011KT 10SM CLR 19/M02 A2995 RMK AO2 T01871025
cycle: 8

Station Type Date Time Source
KLRU TAF 2021/04/13 06:42 UTC NOAA

TAF KLRU 130540Z 1306/1406 24006KT P6SM SKC
FM130700 16008KT P6SM SKC
FM131900 19012G21KT P6SM SKC
FM132200 22014G22KT P6SM FEW250
FM140400 21010KT P6SM FEW200 SCT250

Example: see airport list